createdAt,value
2019-01-20T00:02:00.071Z,1.53
2019-01-20T00:04:30.083Z,1.53
2019-01-20T00:07:02.051Z,1.56
2019-01-20T00:09:34.682Z,1.56
2019-01-20T00:12:04.501Z,1.54
2019-01-20T00:14:45.890Z,1.54
2019-01-20T00:17:15.504Z,1.56
2019-01-20T00:19:45.131Z,1.57
2019-01-20T00:22:14.635Z,1.56
2019-01-20T00:24:44.279Z,1.51
2019-01-20T00:30:02.581Z,1.55
2019-01-20T00:32:46.535Z,1.54
2019-01-20T00:35:35.009Z,1.52
2019-01-20T00:38:26.164Z,1.52
2019-01-20T00:41:06.963Z,1.43
2019-01-20T00:43:57.078Z,1.43
2019-01-20T00:46:26.982Z,1.42
2019-01-20T00:48:56.449Z,1.45
2019-01-20T00:51:26.473Z,1.37
2019-01-20T00:53:56.114Z,1.39
2019-01-20T00:56:25.752Z,1.38
2019-01-20T00:59:14.276Z,1.42
2019-01-20T01:01:43.906Z,1.42
2019-01-20T01:04:13.417Z,1.42
2019-01-20T01:09:37.761Z,1.47
2019-01-20T01:12:19.243Z,1.41
2019-01-20T01:17:43.141Z,1.47
2019-01-20T01:20:14.115Z,1.47
2019-01-20T01:22:43.664Z,1.41
2019-01-20T01:25:14.630Z,1.32
2019-01-20T01:27:44.088Z,1.27
2019-01-20T01:30:16.490Z,1.30
2019-01-20T01:32:45.943Z,1.23
2019-01-20T01:35:15.786Z,1.23
2019-01-20T01:37:45.231Z,1.17
2019-01-20T01:40:33.828Z,1.22
2019-01-20T01:43:03.599Z,1.13
2019-01-20T01:45:35.033Z,1.08
2019-01-20T01:48:04.964Z,1.08
2019-01-20T01:50:45.093Z,1.03
2019-01-20T01:53:33.807Z,0.94
2019-01-20T01:56:22.480Z,0.86
2019-01-20T01:59:03.563Z,0.85
2019-01-20T02:01:33.804Z,0.85
2019-01-20T02:04:03.593Z,0.84
2019-01-20T02:06:45.443Z,0.82
2019-01-20T02:14:56.961Z,0.86
2019-01-20T02:17:26.524Z,0.89
2019-01-20T02:19:56.103Z,0.87
2019-01-20T02:25:03.794Z,0.81
2019-01-20T02:30:31.959Z,0.74
2019-01-20T02:33:01.590Z,0.72
2019-01-20T02:35:31.232Z,0.66
2019-01-20T02:38:00.858Z,0.59
2019-01-20T02:40:49.509Z,0.55
2019-01-20T02:43:19.426Z,0.55
2019-01-20T02:46:08.221Z,0.50
2019-01-20T02:48:37.953Z,0.47
2019-01-20T02:51:08.533Z,0.47
2019-01-20T02:53:38.187Z,0.41
2019-01-20T02:56:07.784Z,0.41
2019-01-20T02:58:37.448Z,0.40
2019-01-20T03:01:07.107Z,0.38
2019-01-20T03:03:36.937Z,0.36
2019-01-20T03:06:06.635Z,0.36
2019-01-20T03:08:55.410Z,0.37
2019-01-20T03:11:24.959Z,0.37
2019-01-20T03:13:54.449Z,0.37
2019-01-20T03:16:24.916Z,0.38
2019-01-20T03:19:15.433Z,0.37
2019-01-20T03:22:04.191Z,0.33
2019-01-20T03:24:33.770Z,0.33
2019-01-20T03:27:03.432Z,0.31
2019-01-20T03:29:33.207Z,0.30
2019-01-20T03:32:03.082Z,0.29
2019-01-20T03:34:32.561Z,0.26
2019-01-20T03:37:21.394Z,0.26
2019-01-20T03:42:46.257Z,0.22
2019-01-20T03:45:17.421Z,0.17
2019-01-20T03:47:47.109Z,0.17
2019-01-20T03:50:17.492Z,0.12
2019-01-20T03:52:47.108Z,0.07
2019-01-20T03:55:27.505Z,-0.01
2019-01-20T03:57:57.168Z,-0.03
2019-01-20T04:00:26.843Z,-0.06
2019-01-20T04:03:15.543Z,-0.07
2019-01-20T04:05:45.117Z,-0.09
2019-01-20T04:08:14.644Z,-0.08
2019-01-20T04:10:44.248Z,-0.13
2019-01-20T04:13:13.710Z,-0.15
2019-01-20T04:15:43.386Z,-0.15
2019-01-20T04:18:13.115Z,-0.19
2019-01-20T04:20:52.117Z,-0.21
2019-01-20T04:23:22.237Z,-0.22
2019-01-20T04:25:51.923Z,-0.25
2019-01-20T04:28:21.431Z,-0.24
2019-01-20T04:31:11.614Z,-0.27
2019-01-20T04:36:30.559Z,-0.32
2019-01-20T04:39:00.004Z,-0.35
2019-01-20T04:41:30.883Z,-0.35
2019-01-20T04:44:11.334Z,-0.40
2019-01-20T04:46:40.848Z,-0.46
2019-01-20T04:49:10.482Z,-0.52
2019-01-20T04:51:40.100Z,-0.57
2019-01-20T04:54:10.009Z,-0.64
2019-01-20T04:56:39.520Z,-0.72
2019-01-20T04:59:12.664Z,-0.78
2019-01-20T05:01:42.215Z,-0.83
2019-01-20T05:04:12.142Z,-0.91
2019-01-20T05:06:42.138Z,-0.97
2019-01-20T05:09:13.126Z,-1.00
2019-01-20T05:11:42.974Z,-1.06
2019-01-20T05:14:13.012Z,-1.13
2019-01-20T05:16:42.614Z,-1.17
2019-01-20T05:19:40.048Z,-1.22
2019-01-20T05:21:57.170Z,-1.26
2019-01-20T05:24:27.299Z,-1.32
2019-01-20T05:27:26.056Z,-1.38
2019-01-20T05:29:56.750Z,-1.45
2019-01-20T05:32:26.270Z,-1.53
2019-01-20T05:37:44.356Z,-1.65
2019-01-20T05:40:14.859Z,-1.70
2019-01-20T05:43:08.355Z,-1.76
2019-01-20T05:45:49.280Z,-1.80
2019-01-20T05:48:19.092Z,-1.86
2019-01-20T05:50:51.778Z,-1.89
2019-01-20T05:53:21.372Z,-1.95
2019-01-20T05:55:50.826Z,-1.98
2019-01-20T05:58:21.193Z,-2.01
2019-01-20T06:03:25.372Z,-2.04
2019-01-20T06:06:13.806Z,-2.08
2019-01-20T06:08:43.332Z,-2.08
2019-01-20T06:11:12.985Z,-2.07
2019-01-20T06:13:42.683Z,-2.09
2019-01-20T06:16:26.387Z,-2.10
2019-01-20T06:18:56.122Z,-2.11
2019-01-20T06:21:25.550Z,-2.14
2019-01-20T06:26:43.499Z,-2.23
2019-01-20T06:29:12.949Z,-2.27
2019-01-20T06:31:49.626Z,-2.30
2019-01-20T06:37:28.592Z,-2.36
2019-01-20T06:39:58.334Z,-2.40
2019-01-20T06:42:46.925Z,-2.44
2019-01-20T06:45:36.952Z,-2.46
2019-01-20T06:48:18.305Z,-2.51
2019-01-20T06:50:48.949Z,-2.55
2019-01-20T06:53:18.426Z,-2.61
2019-01-20T06:55:48.100Z,-2.62
2019-01-20T06:58:36.747Z,-2.64
2019-01-20T07:01:06.376Z,-2.69
2019-01-20T07:03:36.058Z,-2.73
2019-01-20T07:06:05.701Z,-2.75
2019-01-20T07:08:35.936Z,-2.81
2019-01-20T07:11:05.412Z,-2.85
2019-01-20T07:13:37.175Z,-2.90
2019-01-20T07:16:07.031Z,-2.94
2019-01-20T07:18:37.080Z,-2.98
2019-01-20T07:21:08.090Z,-3.06
2019-01-20T07:23:38.447Z,-3.12
2019-01-20T07:26:20.079Z,-3.15
2019-01-20T07:28:40.020Z,-3.14
2019-01-20T07:31:21.158Z,-3.17
2019-01-20T07:33:50.881Z,-3.19
2019-01-20T07:36:29.322Z,-3.22
2019-01-20T07:38:58.831Z,-3.21
2019-01-20T07:41:47.331Z,-3.22
2019-01-20T07:44:28.452Z,-3.21
2019-01-20T07:47:09.224Z,-3.22
2019-01-20T07:49:43.180Z,-3.22
2019-01-20T07:52:12.774Z,-3.21
2019-01-20T07:55:08.023Z,-3.19
2019-01-20T07:57:38.627Z,-3.16
2019-01-20T08:00:11.053Z,-3.12
2019-01-20T08:05:35.886Z,-3.01
2019-01-20T08:18:59.078Z,-2.68
2019-01-20T08:21:47.444Z,-2.60
2019-01-20T08:24:17.514Z,-2.53
2019-01-20T08:26:48.070Z,-2.44
2019-01-20T08:29:18.283Z,-2.39
2019-01-20T08:31:48.097Z,-2.32
2019-01-20T08:34:17.877Z,-2.26
2019-01-20T08:36:47.398Z,-2.21
2019-01-20T08:41:51.993Z,-2.08
2019-01-20T08:44:27.208Z,-2.02
2019-01-20T08:47:11.255Z,-1.96
2019-01-20T08:49:40.803Z,-1.90
2019-01-20T08:52:29.437Z,-1.84
2019-01-20T08:55:18.025Z,-1.78
2019-01-20T08:57:47.504Z,-1.71
2019-01-20T09:00:21.105Z,-1.68
2019-01-20T09:02:50.842Z,-1.65
2019-01-20T09:05:20.770Z,-1.60
2019-01-20T09:07:50.688Z,-1.57
2019-01-20T09:10:26.788Z,-1.52
2019-01-20T09:16:08.063Z,-1.40
2019-01-20T09:18:37.719Z,-1.35
2019-01-20T09:23:55.723Z,-1.24
2019-01-20T09:26:25.272Z,-1.18
2019-01-20T09:28:57.642Z,-1.12
2019-01-20T09:31:27.143Z,-1.04
2019-01-20T09:34:13.317Z,-1.02
2019-01-20T09:36:47.676Z,-0.97
2019-01-20T09:42:15.524Z,-0.81
2019-01-20T09:47:34.031Z,-0.69
2019-01-20T09:50:24.201Z,-0.60
2019-01-20T09:53:04.849Z,-0.46
2019-01-20T09:55:46.785Z,-0.46
2019-01-20T09:58:16.493Z,-0.42
2019-01-20T10:04:05.671Z,-0.23
2019-01-20T10:06:38.282Z,-0.23
2019-01-20T10:09:09.455Z,-0.20
2019-01-20T10:11:39.034Z,-0.20
2019-01-20T10:14:08.570Z,-0.17
2019-01-20T10:16:57.022Z,-0.08
2019-01-20T10:19:27.214Z,-0.08
2019-01-20T10:21:56.755Z,-0.02
2019-01-20T10:24:26.424Z,-0.02
2019-01-20T10:26:55.975Z,0.03
2019-01-20T10:29:25.552Z,0.07
2019-01-20T10:34:31.170Z,0.21
2019-01-20T10:37:03.988Z,0.21
2019-01-20T10:39:52.431Z,0.32
2019-01-20T10:42:22.211Z,0.32
2019-01-20T10:44:51.876Z,0.26
2019-01-20T10:47:22.009Z,0.30
2019-01-20T10:50:11.077Z,0.25
2019-01-20T10:55:29.162Z,0.33
2019-01-20T10:57:58.831Z,0.33
2019-01-20T11:00:30.834Z,0.35
2019-01-20T11:03:19.472Z,0.29
2019-01-20T11:05:49.291Z,0.29
2019-01-20T11:10:58.892Z,0.36
2019-01-20T11:13:28.381Z,0.47
2019-01-20T11:15:58.009Z,0.51
2019-01-20T11:21:21.885Z,0.55
2019-01-20T11:24:17.794Z,0.57
2019-01-20T11:26:59.211Z,0.58
2019-01-20T11:29:28.729Z,0.58
2019-01-20T11:31:58.271Z,0.59
2019-01-20T11:34:27.849Z,0.55
2019-01-20T11:36:57.559Z,0.55
2019-01-20T11:39:27.112Z,0.56
2019-01-20T11:41:56.570Z,0.55
2019-01-20T11:44:26.220Z,0.55
2019-01-20T11:47:15.218Z,0.53
2019-01-20T11:49:44.883Z,0.53
2019-01-20T11:52:14.923Z,0.56
2019-01-20T11:55:03.473Z,0.50
2019-01-20T11:57:33.281Z,0.50
2019-01-20T12:00:05.508Z,0.46
2019-01-20T12:02:35.105Z,0.46
2019-01-20T12:08:14.078Z,0.51
2019-01-20T12:10:43.903Z,0.51
2019-01-20T12:16:04.862Z,0.45
2019-01-20T12:18:34.424Z,0.42
2019-01-20T12:21:04.213Z,0.40
2019-01-20T12:23:33.969Z,0.40
2019-01-20T12:26:23.765Z,0.45
2019-01-20T12:29:04.444Z,0.45
2019-01-20T12:34:28.725Z,0.55
2019-01-20T12:36:58.207Z,0.61
2019-01-20T12:39:27.668Z,0.61
2019-01-20T12:41:57.166Z,0.56
2019-01-20T12:44:31.422Z,0.56
2019-01-20T12:47:06.110Z,0.55
2019-01-20T12:49:54.452Z,0.56
2019-01-20T12:52:35.682Z,0.56
2019-01-20T12:58:14.248Z,0.54
2019-01-20T13:00:43.946Z,0.56
2019-01-20T13:03:13.669Z,0.57
2019-01-20T13:05:43.462Z,0.58
2019-01-20T13:08:13.140Z,0.58
2019-01-20T13:10:42.952Z,0.59
2019-01-20T13:15:50.358Z,0.54
2019-01-20T13:18:20.171Z,0.49
2019-01-20T13:21:08.896Z,0.40
2019-01-20T13:23:50.433Z,0.30
2019-01-20T13:26:20.621Z,0.30
2019-01-20T13:29:12.144Z,0.22
2019-01-20T13:31:53.572Z,0.22
2019-01-20T13:34:23.138Z,0.08
2019-01-20T13:36:52.740Z,0.08
2019-01-20T13:39:22.564Z,0.05
2019-01-20T13:41:52.750Z,-0.01
2019-01-20T13:44:22.524Z,0.04
2019-01-20T13:47:11.219Z,0.05
2019-01-20T13:55:35.051Z,-0.01
2019-01-20T13:58:05.355Z,-0.08
2019-01-20T14:03:25.116Z,-0.12
2019-01-20T14:05:55.413Z,-0.16
2019-01-20T14:08:24.877Z,-0.20
2019-01-20T14:10:54.392Z,-0.23
2019-01-20T14:13:31.463Z,-0.24
2019-01-20T14:16:01.387Z,-0.30
2019-01-20T14:18:33.850Z,-0.33
2019-01-20T14:21:03.467Z,-0.38
2019-01-20T14:23:34.566Z,-0.40
2019-01-20T14:26:07.220Z,-0.46
2019-01-20T14:28:36.996Z,-0.53
2019-01-20T14:31:06.621Z,-0.58
2019-01-20T14:39:25.610Z,-0.72
2019-01-20T14:41:55.129Z,-0.82
2019-01-20T14:47:58.232Z,-0.94
2019-01-20T14:53:46.608Z,-1.10
2019-01-20T14:56:29.282Z,-1.16
2019-01-20T14:59:17.759Z,-1.22
2019-01-20T15:01:47.367Z,-1.28
2019-01-20T15:04:24.118Z,-1.33
2019-01-20T15:07:13.270Z,-1.37
2019-01-20T15:12:54.142Z,-1.53
2019-01-20T15:15:32.351Z,-1.63
2019-01-20T15:18:02.651Z,-1.70
2019-01-20T15:23:25.085Z,-1.91
2019-01-20T15:25:54.711Z,-2.00
2019-01-20T15:28:39.867Z,-2.07
2019-01-20T15:31:09.730Z,-2.12
2019-01-20T15:33:39.647Z,-2.22
2019-01-20T15:36:09.248Z,-2.25
2019-01-20T15:39:00.388Z,-2.29
2019-01-20T15:45:06.017Z,-2.34
2019-01-20T15:47:48.851Z,-2.38
2019-01-20T15:50:26.938Z,-2.40
2019-01-20T15:53:15.700Z,-2.42
2019-01-20T15:58:26.823Z,-2.44
2019-01-20T16:03:52.128Z,-2.46
2019-01-20T16:09:48.368Z,-2.49
2019-01-20T16:12:06.760Z,-2.49
2019-01-20T16:14:47.697Z,-2.51
2019-01-20T16:17:39.133Z,-2.52
2019-01-20T16:20:28.814Z,-2.57
2019-01-20T16:22:58.495Z,-2.62
2019-01-20T16:25:35.877Z,-2.67
2019-01-20T16:28:24.430Z,-2.72
2019-01-20T16:30:57.705Z,-2.72
2019-01-20T16:33:27.688Z,-2.75
2019-01-20T16:36:17.860Z,-2.77
2019-01-20T16:39:07.495Z,-2.78
2019-01-20T16:41:39.337Z,-2.82
2019-01-20T16:44:10.765Z,-2.83
2019-01-20T16:46:43.754Z,-2.87
2019-01-20T16:51:55.538Z,-2.95
2019-01-20T16:54:48.852Z,-2.95
2019-01-20T16:57:18.504Z,-2.99
2019-01-20T16:59:48.813Z,-3.02
2019-01-20T17:02:18.320Z,-3.04
2019-01-20T17:07:35.281Z,-3.09
2019-01-20T17:10:09.988Z,-3.11
2019-01-20T17:12:40.375Z,-3.12
2019-01-20T17:15:12.857Z,-3.17
2019-01-20T17:17:42.458Z,-3.21
2019-01-20T17:20:19.956Z,-3.27
2019-01-20T17:22:49.918Z,-3.33
2019-01-20T17:25:19.529Z,-3.38
2019-01-20T17:30:30.582Z,-3.46
2019-01-20T17:33:00.482Z,-3.46
2019-01-20T17:35:54.830Z,-3.48
2019-01-20T17:43:48.234Z,-3.55
2019-01-20T17:49:11.427Z,-3.60
2019-01-20T17:51:51.480Z,-3.66
2019-01-20T17:55:06.516Z,-3.66
2019-01-20T17:57:35.984Z,-3.70
2019-01-20T18:00:45.808Z,-3.75
2019-01-20T18:06:10.428Z,-3.81
2019-01-20T18:08:40.098Z,-3.84
2019-01-20T18:11:28.603Z,-3.88
2019-01-20T18:14:17.248Z,-3.89
2019-01-20T18:20:05.690Z,-3.92
2019-01-20T18:22:54.296Z,-3.93
2019-01-20T18:25:24.154Z,-3.94
2019-01-20T18:28:13.378Z,-3.98
2019-01-20T18:30:43.393Z,-3.96
2019-01-20T18:33:23.834Z,-4.00
2019-01-20T18:35:56.304Z,-4.02
2019-01-20T18:41:00.799Z,-4.05
2019-01-20T18:43:41.218Z,-4.07
2019-01-20T18:49:02.556Z,-4.09
2019-01-20T18:51:54.245Z,-4.10
2019-01-20T18:54:35.191Z,-4.11
2019-01-20T18:57:05.276Z,-4.11
2019-01-20T18:59:35.390Z,-4.10
2019-01-20T19:02:10.493Z,-4.10
2019-01-20T19:04:40.701Z,-4.10
2019-01-20T19:07:25.947Z,-4.11
2019-01-20T19:09:43.136Z,-4.11
2019-01-20T19:12:13.875Z,-4.11
2019-01-20T19:14:43.464Z,-4.10
2019-01-20T19:19:50.899Z,-4.04
2019-01-20T19:24:55.886Z,-4.00
2019-01-20T19:27:36.716Z,-4.00
2019-01-20T19:30:13.792Z,-4.00
2019-01-20T19:35:18.354Z,-4.03
2019-01-20T19:37:48.091Z,-4.04
2019-01-20T19:40:17.991Z,-4.06
2019-01-20T19:42:47.718Z,-4.11
2019-01-20T19:45:18.600Z,-4.13
2019-01-20T19:53:20.307Z,-4.15
2019-01-20T19:56:01.708Z,-4.16
2019-01-20T20:01:13.739Z,-4.15
2019-01-20T20:09:22.027Z,-4.19
2019-01-20T20:11:52.131Z,-4.21
2019-01-20T20:14:24.035Z,-4.23
2019-01-20T20:16:53.575Z,-4.23
2019-01-20T20:19:37.419Z,-4.23
2019-01-20T20:22:06.971Z,-4.25
2019-01-20T20:27:32.274Z,-4.26
2019-01-20T20:30:02.209Z,-4.27
2019-01-20T20:35:22.914Z,-4.36
2019-01-20T20:37:52.675Z,-4.41
2019-01-20T20:40:28.721Z,-4.42
2019-01-20T20:45:58.560Z,-4.47
2019-01-20T20:48:28.816Z,-4.52
2019-01-20T20:50:58.308Z,-4.55
2019-01-20T20:53:27.957Z,-4.61
2019-01-20T20:55:57.439Z,-4.66
2019-01-20T20:58:49.958Z,-4.72
2019-01-20T21:01:23.571Z,-4.80
2019-01-20T21:03:53.248Z,-4.86
2019-01-20T21:06:25.319Z,-4.91
2019-01-20T21:08:54.962Z,-4.93
2019-01-20T21:11:24.484Z,-4.94
2019-01-20T21:13:57.436Z,-4.95
2019-01-20T21:16:27.583Z,-4.95
2019-01-20T21:21:45.772Z,-4.93
2019-01-20T21:24:17.114Z,-4.93
2019-01-20T21:26:46.613Z,-4.94
2019-01-20T21:29:36.949Z,-4.94
2019-01-20T21:32:06.420Z,-4.96
2019-01-20T21:34:35.850Z,-4.99
2019-01-20T21:37:05.438Z,-5.00
2019-01-20T21:39:54.183Z,-4.99
2019-01-20T21:42:23.902Z,-5.00
2019-01-20T21:45:00.034Z,-5.02
2019-01-20T21:47:41.485Z,-5.03
2019-01-20T21:50:14.838Z,-5.00
2019-01-20T21:52:44.479Z,-5.01
2019-01-20T21:55:14.066Z,-5.01
2019-01-20T21:57:43.743Z,-5.00
2019-01-20T22:00:16.225Z,-5.00
2019-01-20T22:02:47.891Z,-4.99
2019-01-20T22:05:36.513Z,-4.98
2019-01-20T22:08:06.008Z,-4.98
2019-01-20T22:10:35.471Z,-4.97
2019-01-20T22:13:44.183Z,-4.97
2019-01-20T22:16:13.650Z,-4.97
2019-01-20T22:18:43.179Z,-4.98
2019-01-20T22:21:12.680Z,-4.95
2019-01-20T22:23:46.808Z,-4.97
2019-01-20T22:26:16.458Z,-4.95
2019-01-20T22:28:45.954Z,-4.96
2019-01-20T22:31:15.387Z,-4.99
2019-01-20T22:33:45.022Z,-4.99
2019-01-20T22:36:14.662Z,-4.99
2019-01-20T22:38:53.654Z,-4.98
2019-01-20T22:41:43.604Z,-4.96
2019-01-20T22:44:13.447Z,-4.95
2019-01-20T22:46:43.577Z,-4.96
2019-01-20T22:49:24.480Z,-4.93
2019-01-20T22:54:43.298Z,-4.90
2019-01-20T22:57:43.002Z,-4.89
2019-01-20T23:00:53.864Z,-4.89
2019-01-20T23:06:12.206Z,-4.90
2019-01-20T23:08:47.431Z,-4.92
2019-01-20T23:11:16.899Z,-4.93
2019-01-20T23:13:46.449Z,-4.99
2019-01-20T23:16:34.809Z,-5.02
2019-01-20T23:19:23.678Z,-5.06
2019-01-20T23:22:18.671Z,-5.08
2019-01-20T23:24:55.421Z,-5.09
2019-01-20T23:27:43.957Z,-5.15
2019-01-20T23:32:58.051Z,-5.20
2019-01-20T23:35:50.129Z,-5.20
2019-01-20T23:38:19.612Z,-5.19
2019-01-20T23:43:38.667Z,-5.20
2019-01-20T23:46:08.301Z,-5.24
2019-01-20T23:48:37.913Z,-5.27
2019-01-20T23:51:07.442Z,-5.28
2019-01-20T23:53:42.611Z,-5.27
2019-01-20T23:58:50.151Z,-5.26
